Time;durP1;ratioP1;P1;durP2;ratioP2;P2;SDS_P1;SDS_P2;PMS_P1;PMS_P2;Temp;Humidity;BMP_temperature;BMP_pressure;BME280_temperature;BME280_humidity;BME280_pressure;Samples;Min_cycle;Max_cycle;Signal;HPM_P1;HPM_P2
2023/07/09 00:01:41;;;;;;;4.57;2.63;;;;;;;;;;4959871;28;20035;-75
2023/07/09 00:04:10;;;;;;;3.17;2.35;;;;;;;;;;4962463;28;20027;-75
2023/07/09 00:06:35;;;;;;;4.22;2.80;;;;;;;;;;4977023;28;20031;-76
2023/07/09 00:09:00;;;;;;;3.67;2.88;;;;;;;;;;4983495;28;20018;-76
2023/07/09 00:11:26;;;;;;;3.63;2.80;;;;;;;;;;5011824;28;20030;-75
2023/07/09 00:13:51;;;;;;;5.22;3.88;;;;;;;;;;4996563;28;20369;-76
2023/07/09 00:16:20;;;;;;;5.20;3.50;;;;;;;;;;5011596;28;20022;-76
2023/07/09 00:18:48;;;;;;;5.05;3.58;;;;;;;;;;4997093;28;20031;-76
2023/07/09 00:21:14;;;;;;;4.40;3.20;;;;;;;;;;5011479;28;20457;-76
2023/07/09 00:23:39;;;;;;;4.53;3.15;;;;;;;;;;5011947;28;20022;-76
2023/07/09 00:26:13;;;;;;;4.88;2.83;;;;;;;;;;5011701;28;20022;-76
2023/07/09 00:28:39;;;;;;;6.88;3.40;;;;;;;;;;4995739;28;20437;-75
2023/07/09 00:31:04;;;;;;;5.28;3.42;;;;;;;;;;5011165;28;20141;-75
2023/07/09 00:33:31;;;;;;;5.28;3.25;;;;;;;;;;5011785;28;20030;-76
2023/07/09 00:35:57;;;;;;;4.68;3.50;;;;;;;;;;5011709;28;20030;-75
2023/07/09 00:38:24;;;;;;;7.32;3.50;;;;;;;;;;5011761;28;20030;-75
2023/07/09 00:40:59;;;;;;;5.65;3.65;;;;;;;;;;5011587;28;20558;-75
2023/07/09 00:43:25;;;;;;;6.78;3.95;;;;;;;;;;5011534;28;20407;-76
2023/07/09 00:46:19;;;;;;;5.03;3.13;;;;;;;;;;5011371;28;20105;-75
2023/07/09 00:48:47;;;;;;;6.63;3.45;;;;;;;;;;4996175;28;20022;-75
2023/07/09 00:51:14;;;;;;;4.55;2.97;;;;;;;;;;5011307;28;20022;-75
2023/07/09 00:53:45;;;;;;;4.63;3.00;;;;;;;;;;4994573;28;20024;-75
2023/07/09 00:56:15;;;;;;;5.55;3.78;;;;;;;;;;4996170;28;20491;-76
2023/07/09 00:58:42;;;;;;;6.35;3.47;;;;;;;;;;5011304;28;20065;-75
2023/07/09 01:01:11;;;;;;;5.43;3.67;;;;;;;;;;5011059;28;20032;-75
2023/07/09 01:04:07;;;;;;;3.95;3.55;;;;;;;;;;4994297;28;20373;-75
2023/07/09 01:06:39;;;;;;;4.85;3.92;;;;;;;;;;4983014;28;20070;-75
2023/07/09 01:09:04;;;;;;;4.53;2.75;;;;;;;;;;4978537;28;20022;-75
2023/07/09 01:11:30;;;;;;;5.53;3.45;;;;;;;;;;4995833;28;20096;-75
2023/07/09 01:13:57;;;;;;;4.30;2.85;;;;;;;;;;5010405;28;20037;-75
2023/07/09 01:16:25;;;;;;;6.45;3.63;;;;;;;;;;4994610;28;20026;-76
2023/07/09 01:18:51;;;;;;;6.10;3.25;;;;;;;;;;4994561;28;20113;-75
2023/07/09 01:21:16;;;;;;;5.47;3.20;;;;;;;;;;5010798;28;20081;-75
2023/07/09 01:23:44;;;;;;;5.53;3.65;;;;;;;;;;5010856;28;20026;-76
2023/07/09 01:26:24;;;;;;;5.07;4.20;;;;;;;;;;4995844;28;20392;-75
2023/07/09 01:28:50;;;;;;;4.18;2.78;;;;;;;;;;5010116;28;20026;-76
2023/07/09 01:31:16;;;;;;;4.10;2.80;;;;;;;;;;4994356;28;20029;-75
2023/07/09 01:33:44;;;;;;;4.47;3.30;;;;;;;;;;4995750;28;20023;-76
2023/07/09 01:36:13;;;;;;;5.35;3.50;;;;;;;;;;4995480;28;20019;-75
2023/07/09 01:38:39;;;;;;;5.05;3.50;;;;;;;;;;5010376;28;20022;-75
2023/07/09 01:41:05;;;;;;;6.32;3.42;;;;;;;;;;4993593;28;20118;-75
2023/07/09 01:43:30;;;;;;;6.03;4.15;;;;;;;;;;5010900;28;20105;-75
2023/07/09 01:45:57;;;;;;;4.85;3.58;;;;;;;;;;5006498;28;20030;-75
2023/07/09 01:48:24;;;;;;;7.72;4.63;;;;;;;;;;4993311;28;20476;-75
2023/07/09 01:50:50;;;;;;;5.40;4.03;;;;;;;;;;4995154;28;20026;-75
2023/07/09 01:53:17;;;;;;;5.60;4.20;;;;;;;;;;4993733;28;20022;-75
2023/07/09 01:55:44;;;;;;;4.63;3.50;;;;;;;;;;4993286;28;20045;-75
2023/07/09 01:58:10;;;;;;;4.88;3.17;;;;;;;;;;4995006;28;20033;-75
2023/07/09 02:00:36;;;;;;;4.40;3.13;;;;;;;;;;4976622;28;20038;-75
2023/07/09 02:03:02;;;;;;;5.22;3.50;;;;;;;;;;5031849;23;20073;-69
2023/07/09 02:05:30;;;;;;;6.57;4.30;;;;;;;;;;5013533;28;20475;-69
2023/07/09 02:07:56;;;;;;;5.28;3.78;;;;;;;;;;5014233;28;20030;-69
2023/07/09 02:10:21;;;;;;;5.80;3.72;;;;;;;;;;5014134;28;20028;-69
2023/07/09 02:12:47;;;;;;;6.15;4.38;;;;;;;;;;5013872;28;20534;-69
2023/07/09 02:15:12;;;;;;;5.13;3.78;;;;;;;;;;5014253;28;20026;-69
2023/07/09 02:17:38;;;;;;;5.70;4.18;;;;;;;;;;5014506;28;20024;-69
2023/07/09 02:20:06;;;;;;;5.45;3.78;;;;;;;;;;5013143;28;20018;-69
2023/07/09 02:22:32;;;;;;;5.22;3.72;;;;;;;;;;5012887;28;20030;-69
2023/07/09 02:24:57;;;;;;;7.65;4.63;;;;;;;;;;5013584;28;20122;-69
2023/07/09 02:27:23;;;;;;;6.45;3.75;;;;;;;;;;5013325;28;20026;-69
2023/07/09 02:29:48;;;;;;;6.78;6.07;;;;;;;;;;5013825;28;20372;-69
2023/07/09 02:32:20;;;;;;;6.80;4.78;;;;;;;;;;5013601;28;20076;-69
2023/07/09 02:34:48;;;;;;;6.88;4.53;;;;;;;;;;5012325;28;20475;-69
2023/07/09 02:37:15;;;;;;;6.22;4.68;;;;;;;;;;5012452;28;20041;-69
2023/07/09 02:39:40;;;;;;;7.35;4.50;;;;;;;;;;5012635;28;20446;-69
2023/07/09 02:42:07;;;;;;;5.53;4.03;;;;;;;;;;5013365;28;20022;-69
2023/07/09 02:44:33;;;;;;;5.95;4.53;;;;;;;;;;4998743;28;20547;-69
2023/07/09 02:46:58;;;;;;;6.25;4.45;;;;;;;;;;5012246;28;20036;-69
2023/07/09 02:49:23;;;;;;;8.10;5.65;;;;;;;;;;5013219;28;20406;-69
2023/07/09 02:51:49;;;;;;;9.20;5.70;;;;;;;;;;5012894;28;20030;-68
2023/07/09 02:54:14;;;;;;;5.85;3.92;;;;;;;;;;5013507;28;20018;-69
2023/07/09 02:56:39;;;;;;;7.28;5.13;;;;;;;;;;5012774;28;20022;-68
2023/07/09 02:59:05;;;;;;;7.22;4.50;;;;;;;;;;5012101;28;20022;-69
2023/07/09 03:01:33;;;;;;;7.10;5.03;;;;;;;;;;5013270;28;20025;-68
2023/07/09 03:03:59;;;;;;;6.40;4.90;;;;;;;;;;5014126;28;20104;-69
2023/07/09 03:06:25;;;;;;;8.50;5.45;;;;;;;;;;5013854;28;20529;-68
2023/07/09 03:08:51;;;;;;;6.30;4.88;;;;;;;;;;5013242;28;20025;-68
2023/07/09 03:11:17;;;;;;;7.03;4.80;;;;;;;;;;5011628;28;20025;-69
2023/07/09 03:13:42;;;;;;;6.03;4.75;;;;;;;;;;5012984;28;20026;-69
2023/07/09 03:16:08;;;;;;;6.93;4.53;;;;;;;;;;5012071;28;20491;-68
2023/07/09 03:18:33;;;;;;;5.18;3.88;;;;;;;;;;5012920;28;20030;-68
2023/07/09 03:20:59;;;;;;;5.03;3.60;;;;;;;;;;5012624;28;20026;-68
2023/07/09 03:23:24;;;;;;;6.00;4.28;;;;;;;;;;5012964;28;20499;-69
2023/07/09 03:25:49;;;;;;;7.68;4.80;;;;;;;;;;5012830;28;20495;-69
2023/07/09 03:28:15;;;;;;;5.57;3.97;;;;;;;;;;5013120;28;20025;-68
2023/07/09 03:30:45;;;;;;;7.85;5.18;;;;;;;;;;5012843;28;20044;-69
2023/07/09 03:33:11;;;;;;;6.75;5.00;;;;;;;;;;5007136;28;20026;-69
2023/07/09 03:35:38;;;;;;;8.75;5.57;;;;;;;;;;5007994;28;20523;-69
2023/07/09 03:38:04;;;;;;;8.35;5.80;;;;;;;;;;5013307;28;20030;-68
2023/07/09 03:40:29;;;;;;;9.45;5.43;;;;;;;;;;5012847;28;20472;-68
2023/07/09 03:42:54;;;;;;;7.30;5.00;;;;;;;;;;5012955;28;20026;-68
2023/07/09 03:45:20;;;;;;;6.22;4.43;;;;;;;;;;5012917;28;20036;-68
2023/07/09 03:47:45;;;;;;;8.02;5.10;;;;;;;;;;5012318;28;20036;-69
2023/07/09 03:50:11;;;;;;;6.25;4.78;;;;;;;;;;5007962;28;20074;-69
2023/07/09 03:52:36;;;;;;;7.10;5.07;;;;;;;;;;4993264;28;20439;-68
2023/07/09 03:55:04;;;;;;;7.47;5.35;;;;;;;;;;4993041;28;20113;-69
2023/07/09 03:57:30;;;;;;;8.38;5.50;;;;;;;;;;4998279;28;20033;-68
2023/07/09 03:59:55;;;;;;;8.77;6.05;;;;;;;;;;5012201;28;20057;-68
2023/07/09 04:02:20;;;;;;;9.45;5.82;;;;;;;;;;5012342;28;20034;-68
2023/07/09 04:04:46;;;;;;;6.70;4.70;;;;;;;;;;5012773;28;20026;-69
2023/07/09 04:07:11;;;;;;;7.55;5.28;;;;;;;;;;5012782;28;20036;-68
2023/07/09 04:09:36;;;;;;;8.05;4.80;;;;;;;;;;4996412;28;20022;-69
2023/07/09 04:12:02;;;;;;;8.27;5.07;;;;;;;;;;4992957;28;20027;-69
2023/07/09 04:14:29;;;;;;;6.82;5.13;;;;;;;;;;5002671;28;20157;-69
2023/07/09 04:16:54;;;;;;;6.15;4.43;;;;;;;;;;5012898;28;20029;-68
2023/07/09 04:19:19;;;;;;;5.43;4.03;;;;;;;;;;5011926;28;20026;-69
2023/07/09 04:21:45;;;;;;;5.57;4.03;;;;;;;;;;5013131;28;20021;-69
2023/07/09 04:24:10;;;;;;;6.95;4.78;;;;;;;;;;5015420;28;20022;-69
2023/07/09 04:26:39;;;;;;;6.07;4.32;;;;;;;;;;5016126;28;20022;-69
2023/07/09 04:29:05;;;;;;;6.90;5.03;;;;;;;;;;5015840;28;20057;-69
2023/07/09 04:31:31;;;;;;;7.25;4.43;;;;;;;;;;5014470;28;20595;-69
2023/07/09 04:33:56;;;;;;;6.93;4.35;;;;;;;;;;5015954;28;20046;-69
2023/07/09 04:36:22;;;;;;;8.23;4.43;;;;;;;;;;5016050;28;20018;-69
2023/07/09 04:38:47;;;;;;;5.63;3.90;;;;;;;;;;5015916;28;20026;-69
2023/07/09 04:41:12;;;;;;;9.35;4.30;;;;;;;;;;5013945;28;20026;-69
2023/07/09 04:43:38;;;;;;;5.45;3.83;;;;;;;;;;5015959;28;20022;-69
2023/07/09 04:46:03;;;;;;;5.50;4.22;;;;;;;;;;5015805;28;20506;-69
2023/07/09 04:48:28;;;;;;;5.70;3.80;;;;;;;;;;5015491;28;20028;-69
2023/07/09 04:50:54;;;;;;;6.55;4.03;;;;;;;;;;5015349;28;20029;-69
2023/07/09 04:53:20;;;;;;;5.65;4.40;;;;;;;;;;5015521;28;20514;-69
2023/07/09 04:55:45;;;;;;;5.65;4.78;;;;;;;;;;5014412;28;20379;-69
2023/07/09 04:58:10;;;;;;;5.63;3.33;;;;;;;;;;5015751;28;20076;-69
2023/07/09 05:00:36;;;;;;;5.55;3.70;;;;;;;;;;5015370;28;20379;-69
2023/07/09 05:03:01;;;;;;;5.05;3.15;;;;;;;;;;5014894;28;20063;-68
2023/07/09 05:05:27;;;;;;;4.90;3.30;;;;;;;;;;5015130;28;20028;-69
2023/07/09 05:07:52;;;;;;;5.05;2.97;;;;;;;;;;5015538;28;20078;-69
2023/07/09 05:10:18;;;;;;;6.20;3.15;;;;;;;;;;5015176;28;20032;-69
2023/07/09 05:12:48;;;;;;;4.30;3.10;;;;;;;;;;5014631;28;20491;-69
2023/07/09 05:15:14;;;;;;;3.90;2.85;;;;;;;;;;5014115;28;20438;-69
2023/07/09 05:17:39;;;;;;;4.18;2.92;;;;;;;;;;5015143;28;20026;-69
2023/07/09 05:20:05;;;;;;;4.50;2.58;;;;;;;;;;5014996;28;20026;-68
2023/07/09 05:22:31;;;;;;;4.10;2.72;;;;;;;;;;5015217;28;20029;-69
2023/07/09 05:24:56;;;;;;;4.15;2.67;;;;;;;;;;5014074;28;20088;-69
2023/07/09 05:27:21;;;;;;;3.30;2.53;;;;;;;;;;5015037;28;20029;-69
2023/07/09 05:29:47;;;;;;;3.05;2.15;;;;;;;;;;5014824;28;20107;-71
2023/07/09 05:32:12;;;;;;;3.97;2.55;;;;;;;;;;5014948;28;20032;-71
2023/07/09 05:34:37;;;;;;;3.35;2.60;;;;;;;;;;5013930;28;20018;-71
2023/07/09 05:37:03;;;;;;;5.07;3.65;;;;;;;;;;5009957;28;20372;-71
2023/07/09 05:39:28;;;;;;;4.90;2.47;;;;;;;;;;4995223;28;20026;-71
2023/07/09 05:41:53;;;;;;;4.70;2.47;;;;;;;;;;4994886;28;20076;-72
2023/07/09 05:44:19;;;;;;;4.68;2.97;;;;;;;;;;5013161;28;20387;-71
2023/07/09 05:46:44;;;;;;;4.05;2.67;;;;;;;;;;5014060;28;20028;-71
2023/07/09 05:49:10;;;;;;;3.65;2.63;;;;;;;;;;5014552;28;20018;-71
2023/07/09 05:51:35;;;;;;;3.72;2.70;;;;;;;;;;5014590;28;20029;-71
2023/07/09 05:54:01;;;;;;;3.05;2.67;;;;;;;;;;5013106;28;20372;-71
2023/07/09 05:56:26;;;;;;;3.25;2.40;;;;;;;;;;5012905;28;20022;-72
2023/07/09 05:58:52;;;;;;;3.65;2.47;;;;;;;;;;4997595;28;20029;-71
2023/07/09 06:01:19;;;;;;;3.38;2.30;;;;;;;;;;5013902;28;20026;-72
2023/07/09 06:03:45;;;;;;;4.10;2.10;;;;;;;;;;5013371;28;20053;-71
2023/07/09 06:06:10;;;;;;;3.28;2.25;;;;;;;;;;5012532;28;20022;-71
2023/07/09 06:08:37;;;;;;;3.30;2.58;;;;;;;;;;5013918;28;20365;-72
2023/07/09 06:11:03;;;;;;;5.30;2.60;;;;;;;;;;5014243;28;20041;-71
2023/07/09 06:13:30;;;;;;;4.88;2.30;;;;;;;;;;5012683;28;20029;-72
2023/07/09 06:15:56;;;;;;;3.22;2.20;;;;;;;;;;5013127;28;20018;-69
2023/07/09 06:18:23;;;;;;;3.33;2.17;;;;;;;;;;5012689;28;20475;-71
2023/07/09 06:20:55;;;;;;;2.78;1.90;;;;;;;;;;5014324;28;20045;-71
2023/07/09 06:23:20;;;;;;;3.30;2.03;;;;;;;;;;5013292;28;20029;-71
2023/07/09 06:25:47;;;;;;;3.17;1.98;;;;;;;;;;5014551;28;20025;-71
2023/07/09 06:28:21;;;;;;;2.88;2.30;;;;;;;;;;5013726;28;20073;-72
2023/07/09 06:30:47;;;;;;;3.47;2.08;;;;;;;;;;5013139;28;20017;-71
2023/07/09 06:33:14;;;;;;;2.90;2.10;;;;;;;;;;5012841;28;20571;-71
2023/07/09 06:35:46;;;;;;;3.63;2.22;;;;;;;;;;5012853;28;20018;-71
2023/07/09 06:38:11;;;;;;;3.00;1.98;;;;;;;;;;5012867;28;20030;-71
2023/07/09 06:40:37;;;;;;;3.47;2.50;;;;;;;;;;5014448;28;20387;-71
2023/07/09 06:43:02;;;;;;;6.15;2.17;;;;;;;;;;5013216;28;20022;-71
2023/07/09 06:45:27;;;;;;;3.03;2.00;;;;;;;;;;5013569;28;20026;-71
2023/07/09 06:47:53;;;;;;;4.40;2.25;;;;;;;;;;5013867;28;20479;-71
2023/07/09 06:50:19;;;;;;;2.58;1.90;;;;;;;;;;5014007;28;20060;-71
2023/07/09 06:52:44;;;;;;;5.07;2.28;;;;;;;;;;5013573;28;20026;-71
2023/07/09 06:55:09;;;;;;;3.05;2.20;;;;;;;;;;5014189;28;20033;-71
2023/07/09 06:57:35;;;;;;;2.45;1.83;;;;;;;;;;5012998;28;20030;-71
2023/07/09 07:00:00;;;;;;;3.05;2.03;;;;;;;;;;5014109;28;20028;-71
2023/07/09 07:02:25;;;;;;;3.25;2.13;;;;;;;;;;5013278;28;20099;-71
2023/07/09 07:04:51;;;;;;;4.75;2.42;;;;;;;;;;5013403;28;20032;-69
2023/07/09 07:07:16;;;;;;;2.55;1.80;;;;;;;;;;5012834;28;20018;-69
2023/07/09 07:09:42;;;;;;;2.95;1.90;;;;;;;;;;5013430;28;20022;-69
2023/07/09 07:12:07;;;;;;;3.38;2.25;;;;;;;;;;5013581;28;20072;-69
2023/07/09 07:14:33;;;;;;;3.00;1.98;;;;;;;;;;5012192;28;20450;-69
2023/07/09 07:16:58;;;;;;;2.83;2.30;;;;;;;;;;5013019;28;20025;-70
2023/07/09 07:19:23;;;;;;;4.18;2.00;;;;;;;;;;5013249;28;20479;-69
2023/07/09 07:21:49;;;;;;;3.80;1.80;;;;;;;;;;5013480;28;20029;-69
2023/07/09 07:24:14;;;;;;;2.72;1.77;;;;;;;;;;5011962;28;20021;-69
2023/07/09 07:26:40;;;;;;;3.63;1.73;;;;;;;;;;5585465;23;20049;-69
2023/07/09 07:29:05;;;;;;;3.15;2.08;;;;;;;;;;5011647;28;20022;-69
2023/07/09 07:31:30;;;;;;;3.83;2.10;;;;;;;;;;5013273;28;20520;-69
2023/07/09 07:33:56;;;;;;;2.60;2.03;;;;;;;;;;5013341;28;20091;-69
2023/07/09 07:36:21;;;;;;;4.20;2.30;;;;;;;;;;5012119;28;20029;-69
2023/07/09 07:38:46;;;;;;;3.15;2.10;;;;;;;;;;5013528;28;20026;-70
2023/07/09 07:41:12;;;;;;;3.78;2.40;;;;;;;;;;5034130;23;20052;-71
2023/07/09 07:43:37;;;;;;;4.35;2.33;;;;;;;;;;5013255;28;20381;-72
2023/07/09 07:46:03;;;;;;;3.33;2.20;;;;;;;;;;5012965;28;20032;-72
2023/07/09 07:48:28;;;;;;;3.20;1.85;;;;;;;;;;5012226;28;20036;-72
2023/07/09 07:51:04;;;;;;;2.92;2.13;;;;;;;;;;5013272;28;20025;-70
2023/07/09 07:53:30;;;;;;;3.40;2.80;;;;;;;;;;5012519;28;20390;-71
2023/07/09 07:55:57;;;;;;;2.78;2.08;;;;;;;;;;5011896;28;20033;-71
2023/07/09 07:58:22;;;;;;;3.65;1.85;;;;;;;;;;5015509;28;20022;-70
2023/07/09 08:00:47;;;;;;;3.55;2.30;;;;;;;;;;5016881;28;20391;-71
2023/07/09 08:03:13;;;;;;;3.70;2.33;;;;;;;;;;5016798;28;20076;-70
2023/07/09 08:05:38;;;;;;;2.78;2.03;;;;;;;;;;5016709;28;20022;-70
2023/07/09 08:08:04;;;;;;;4.72;1.95;;;;;;;;;;4998864;28;20034;-70
2023/07/09 08:10:29;;;;;;;3.90;2.00;;;;;;;;;;5016867;28;20025;-70
2023/07/09 08:12:56;;;;;;;2.50;1.88;;;;;;;;;;5015489;28;20034;-71
2023/07/09 08:15:22;;;;;;;4.15;1.88;;;;;;;;;;5016618;28;20018;-70
2023/07/09 08:17:47;;;;;;;4.10;2.15;;;;;;;;;;5015992;28;20021;-71
2023/07/09 08:20:13;;;;;;;5.53;2.00;;;;;;;;;;5016473;28;20087;-71
2023/07/09 08:22:38;;;;;;;2.53;2.03;;;;;;;;;;4998876;28;20517;-71
2023/07/09 08:25:04;;;;;;;2.45;1.83;;;;;;;;;;5016662;28;20036;-71
2023/07/09 08:27:29;;;;;;;3.47;2.13;;;;;;;;;;5016352;28;20044;-71
2023/07/09 08:29:55;;;;;;;2.97;2.20;;;;;;;;;;5015726;28;20048;-73
2023/07/09 08:32:20;;;;;;;3.47;2.25;;;;;;;;;;5016297;28;20067;-72
2023/07/09 08:34:45;;;;;;;3.90;2.20;;;;;;;;;;5016329;28;20071;-71
2023/07/09 08:37:11;;;;;;;3.00;2.53;;;;;;;;;;5016483;28;20380;-72
2023/07/09 08:39:36;;;;;;;3.00;2.03;;;;;;;;;;5015586;28;20030;-73
2023/07/09 08:42:07;;;;;;;2.63;2.17;;;;;;;;;;5014818;28;20029;-74
2023/07/09 08:44:35;;;;;;;3.92;2.10;;;;;;;;;;5014856;28;20101;-74
2023/07/09 08:47:16;;;;;;;2.47;1.90;;;;;;;;;;5016065;28;20029;-74
2023/07/09 08:49:47;;;;;;;3.90;2.00;;;;;;;;;;5015931;28;20057;-72
2023/07/09 08:52:33;;;;;;;3.38;2.03;;;;;;;;;;5014290;28;20026;-72
2023/07/09 08:55:04;;;;;;;3.13;2.10;;;;;;;;;;5014759;28;20025;-71
2023/07/09 08:57:35;;;;;;;4.20;2.03;;;;;;;;;;5014695;28;20030;-71
2023/07/09 09:00:07;;;;;;;3.83;2.30;;;;;;;;;;5014560;28;20038;-71
2023/07/09 09:02:41;;;;;;;2.88;2.15;;;;;;;;;;5014140;28;20061;-71
2023/07/09 09:05:06;;;;;;;2.45;2.15;;;;;;;;;;5014428;28;20045;-71
2023/07/09 09:07:39;;;;;;;2.70;1.95;;;;;;;;;;5014449;28;20065;-71
2023/07/09 09:10:05;;;;;;;2.60;2.05;;;;;;;;;;5014281;28;20036;-71
2023/07/09 09:12:56;;;;;;;2.83;1.95;;;;;;;;;;5016357;28;20437;-74
2023/07/09 09:15:22;;;;;;;4.90;2.50;;;;;;;;;;5005441;28;20038;-74
2023/07/09 09:18:09;;;;;;;3.67;2.40;;;;;;;;;;5013961;28;20077;-74
2023/07/09 09:20:34;;;;;;;4.28;2.45;;;;;;;;;;5013989;28;20029;-74
2023/07/09 09:23:14;;;;;;;2.70;2.00;;;;;;;;;;5015073;28;20026;-74
2023/07/09 09:25:41;;;;;;;3.00;1.90;;;;;;;;;;5012621;28;20033;-75
2023/07/09 09:28:07;;;;;;;4.40;2.35;;;;;;;;;;5013978;28;20026;-74
2023/07/09 09:30:32;;;;;;;2.78;2.30;;;;;;;;;;5013911;28;20022;-74
2023/07/09 09:33:00;;;;;;;3.88;1.90;;;;;;;;;;5015154;28;20025;-74
2023/07/09 09:35:32;;;;;;;2.60;2.25;;;;;;;;;;5013455;28;20021;-74
2023/07/09 09:37:58;;;;;;;2.70;1.90;;;;;;;;;;5014030;28;20494;-73
2023/07/09 09:40:25;;;;;;;2.88;2.17;;;;;;;;;;5013642;28;20058;-74
2023/07/09 09:42:53;;;;;;;3.08;2.30;;;;;;;;;;5014398;28;20029;-73
2023/07/09 09:45:21;;;;;;;3.58;2.78;;;;;;;;;;5014172;28;20406;-74
2023/07/09 09:47:47;;;;;;;4.05;2.25;;;;;;;;;;5014918;28;20028;-73
2023/07/09 09:50:18;;;;;;;2.50;2.20;;;;;;;;;;5014604;28;20042;-74
2023/07/09 09:52:44;;;;;;;3.60;2.30;;;;;;;;;;5013557;28;20042;-73
2023/07/09 09:55:19;;;;;;;3.15;2.13;;;;;;;;;;5013897;28;20028;-75
2023/07/09 09:57:52;;;;;;;3.47;2.60;;;;;;;;;;4996805;28;20438;-73
2023/07/09 10:00:19;;;;;;;3.58;2.40;;;;;;;;;;5013353;28;20088;-74
2023/07/09 10:02:47;;;;;;;3.05;2.40;;;;;;;;;;5010039;28;20033;-74
2023/07/09 10:05:16;;;;;;;3.47;2.20;;;;;;;;;;4994342;28;20052;-74
2023/07/09 10:07:46;;;;;;;3.28;2.22;;;;;;;;;;4993563;28;20029;-74
2023/07/09 10:10:18;;;;;;;3.65;2.60;;;;;;;;;;4993697;28;20026;-74
2023/07/09 10:12:52;;;;;;;2.90;2.00;;;;;;;;;;4993688;28;20030;-74
2023/07/09 10:15:30;;;;;;;3.72;2.33;;;;;;;;;;5000382;28;20478;-74
2023/07/09 10:18:03;;;;;;;3.20;2.15;;;;;;;;;;4994785;28;20109;-74
2023/07/09 10:20:34;;;;;;;4.05;2.20;;;;;;;;;;5009120;28;20569;-74
2023/07/09 10:23:21;;;;;;;4.15;2.53;;;;;;;;;;4994810;28;20446;-74
2023/07/09 10:25:53;;;;;;;3.22;2.30;;;;;;;;;;5002565;28;20386;-74
2023/07/09 10:28:54;;;;;;;2.75;2.30;;;;;;;;;;5012291;28;20030;-75
2023/07/09 10:31:21;;;;;;;;;;;;;;;;;;4996384;28;20033;-74
2023/07/09 10:34:07;;;;;;;4.45;2.25;;;;;;;;;;5012701;28;19910;-74
2023/07/09 10:36:59;;;;;;;3.67;2.20;;;;;;;;;;5012555;28;20025;-74
2023/07/09 10:39:32;;;;;;;3.80;2.22;;;;;;;;;;5012754;28;20030;-74
2023/07/09 10:41:59;;;;;;;4.47;2.60;;;;;;;;;;5011597;28;20021;-74
2023/07/09 10:44:41;;;;;;;4.05;2.40;;;;;;;;;;5012659;28;20022;-74
2023/07/09 10:47:13;;;;;;;2.92;2.25;;;;;;;;;;5012148;28;20026;-74
2023/07/09 10:49:41;;;;;;;2.97;2.10;;;;;;;;;;5012589;28;20028;-74
2023/07/09 10:52:20;;;;;;;3.65;2.38;;;;;;;;;;5012520;28;20564;-74
2023/07/09 10:55:07;;;;;;;3.72;2.97;;;;;;;;;;5011630;28;20398;-74
2023/07/09 10:57:41;;;;;;;2.65;1.90;;;;;;;;;;5013670;28;20033;-74
2023/07/09 11:00:16;;;;;;;4.80;2.58;;;;;;;;;;5012135;28;20132;-74
2023/07/09 11:02:42;;;;;;;5.75;2.38;;;;;;;;;;5012318;28;20029;-74
2023/07/09 11:05:08;;;;;;;3.15;2.25;;;;;;;;;;5011497;28;20026;-75
2023/07/09 11:07:38;;;;;;;3.25;2.40;;;;;;;;;;5012374;28;20096;-75
2023/07/09 11:10:10;;;;;;;3.10;2.40;;;;;;;;;;5011897;28;20529;-74
2023/07/09 11:12:42;;;;;;;2.75;2.50;;;;;;;;;;4993450;28;20032;-75
2023/07/09 11:15:12;;;;;;;4.45;2.72;;;;;;;;;;5012152;28;20394;-74
2023/07/09 11:17:40;;;;;;;3.08;2.15;;;;;;;;;;5011589;28;20037;-75
2023/07/09 11:20:23;;;;;;;3.40;2.00;;;;;;;;;;5011556;28;20025;-74
2023/07/09 11:23:02;;;;;;;3.38;2.28;;;;;;;;;;5011892;28;20099;-75
2023/07/09 11:25:31;;;;;;;7.78;2.42;;;;;;;;;;5011709;28;20018;-75
2023/07/09 11:28:05;;;;;;;4.32;2.58;;;;;;;;;;5012433;28;20056;-74
2023/07/09 11:30:30;;;;;;;4.18;2.22;;;;;;;;;;5011990;28;20026;-74
2023/07/09 11:32:59;;;;;;;4.53;2.55;;;;;;;;;;5010250;28;20550;-76
2023/07/09 11:35:30;;;;;;;4.45;2.97;;;;;;;;;;5012067;28;20371;-76
2023/07/09 11:37:55;;;;;;;3.60;2.20;;;;;;;;;;4995252;28;20093;-76
2023/07/09 11:40:22;;;;;;;3.97;2.63;;;;;;;;;;5011471;28;20042;-76
2023/07/09 11:42:56;;;;;;;5.22;2.65;;;;;;;;;;5012114;28;20026;-76
2023/07/09 11:45:31;;;;;;;3.72;2.45;;;;;;;;;;4994778;28;20117;-76
2023/07/09 11:48:20;;;;;;;3.67;2.45;;;;;;;;;;5013079;28;20018;-75
2023/07/09 11:50:48;;;;;;;3.50;2.28;;;;;;;;;;5011213;28;20030;-76
2023/07/09 11:53:22;;;;;;;3.28;2.15;;;;;;;;;;5011823;28;20538;-76
2023/07/09 11:55:47;;;;;;;3.67;2.67;;;;;;;;;;5012640;28;20120;-76
2023/07/09 11:58:14;;;;;;;2.95;2.50;;;;;;;;;;5012720;28;20367;-76
2023/07/09 12:00:43;;;;;;;4.15;2.92;;;;;;;;;;5011421;28;20021;-76
2023/07/09 12:03:16;;;;;;;4.03;2.78;;;;;;;;;;5011645;28;20386;-76
2023/07/09 12:05:48;;;;;;;2.80;2.30;;;;;;;;;;5010842;28;20022;-75
2023/07/09 12:08:14;;;;;;;2.90;2.10;;;;;;;;;;5010647;28;20022;-76
2023/07/09 12:10:40;;;;;;;2.83;2.30;;;;;;;;;;5011547;28;20071;-76
2023/07/09 12:13:05;;;;;;;2.90;2.25;;;;;;;;;;5011306;28;20022;-76
2023/07/09 12:15:34;;;;;;;3.00;2.35;;;;;;;;;;5011755;28;20030;-76
2023/07/09 12:18:04;;;;;;;4.40;2.38;;;;;;;;;;5012495;28;20022;-76
2023/07/09 12:20:31;;;;;;;3.35;2.30;;;;;;;;;;5012508;28;20025;-76
2023/07/09 12:22:56;;;;;;;2.97;2.33;;;;;;;;;;5012714;28;20572;-76
2023/07/09 12:25:24;;;;;;;5.60;2.83;;;;;;;;;;5012375;28;20029;-76
2023/07/09 12:27:50;;;;;;;3.13;2.35;;;;;;;;;;5010999;28;20026;-76
2023/07/09 12:30:16;;;;;;;3.20;2.20;;;;;;;;;;5010991;28;20048;-76
2023/07/09 12:32:46;;;;;;;4.70;2.33;;;;;;;;;;5011462;28;20025;-76
2023/07/09 12:35:13;;;;;;;4.40;2.45;;;;;;;;;;5011196;28;20451;-76
2023/07/09 12:37:39;;;;;;;3.22;2.42;;;;;;;;;;5011237;28;20109;-76
2023/07/09 12:40:11;;;;;;;3.35;2.65;;;;;;;;;;5010513;28;20398;-76
2023/07/09 12:42:37;;;;;;;3.10;2.30;;;;;;;;;;5011232;28;20030;-75
2023/07/09 12:45:02;;;;;;;4.63;2.03;;;;;;;;;;4997782;28;20033;-75
2023/07/09 12:47:28;;;;;;;4.45;2.33;;;;;;;;;;5015887;28;20046;-75
2023/07/09 12:50:01;;;;;;;4.10;2.40;;;;;;;;;;5014756;28;20470;-75
2023/07/09 12:52:27;;;;;;;3.05;2.17;;;;;;;;;;5014466;28;20060;-75
2023/07/09 12:54:57;;;;;;;3.88;2.40;;;;;;;;;;5014925;28;20017;-75
2023/07/09 12:57:22;;;;;;;;;;;;;;;;;;5015198;28;20034;-75
2023/07/09 12:59:48;;;;;;;4.87;2.43;;;;;;;;;;5014139;28;19960;-75
2023/07/09 13:02:17;;;;;;;4.32;2.78;;;;;;;;;;5015690;28;20430;-75
2023/07/09 13:04:43;;;;;;;3.00;2.33;;;;;;;;;;5014160;28;20083;-75
2023/07/09 13:07:23;;;;;;;3.10;2.25;;;;;;;;;;5013577;28;20482;-75
2023/07/09 13:09:53;;;;;;;4.03;2.33;;;;;;;;;;5015345;28;20025;-75
2023/07/09 13:12:20;;;;;;;2.70;1.83;;;;;;;;;;5014147;28;20050;-75
2023/07/09 13:14:55;;;;;;;3.50;2.50;;;;;;;;;;5012406;28;20030;-75
2023/07/09 13:17:20;;;;;;;3.28;2.10;;;;;;;;;;5013455;28;20076;-75
2023/07/09 13:19:46;;;;;;;3.35;2.42;;;;;;;;;;5014975;28;20022;-75
2023/07/09 13:22:16;;;;;;;3.13;2.10;;;;;;;;;;5015604;28;20029;-75
2023/07/09 13:24:41;;;;;;;3.30;2.67;;;;;;;;;;4997413;28;20032;-76
2023/07/09 13:27:11;;;;;;;3.58;2.42;;;;;;;;;;5016243;28;20041;-76
2023/07/09 13:29:36;;;;;;;3.95;2.35;;;;;;;;;;5014812;28;20036;-75
2023/07/09 13:32:02;;;;;;;4.53;2.40;;;;;;;;;;5014685;28;20018;-75
2023/07/09 13:34:31;;;;;;;5.07;2.72;;;;;;;;;;5013080;28;20025;-75
2023/07/09 13:36:56;;;;;;;4.07;2.35;;;;;;;;;;4997924;28;20062;-75
2023/07/09 13:39:22;;;;;;;3.78;2.20;;;;;;;;;;5022168;28;20076;-75
2023/07/09 13:41:49;;;;;;;3.58;2.40;;;;;;;;;;5069061;22;20049;-68
2023/07/09 13:44:27;;;;;;;3.47;2.50;;;;;;;;;;5013182;28;20478;-68
2023/07/09 13:46:53;;;;;;;3.35;2.60;;;;;;;;;;5014656;28;20402;-70
2023/07/09 13:49:20;;;;;;;3.75;2.22;;;;;;;;;;5015191;28;20104;-69
2023/07/09 13:51:47;;;;;;;4.35;2.50;;;;;;;;;;5015035;28;20468;-69
2023/07/09 13:54:22;;;;;;;3.67;2.30;;;;;;;;;;5014985;28;20072;-70
2023/07/09 13:56:49;;;;;;;3.10;2.20;;;;;;;;;;5014025;28;20056;-70
2023/07/09 13:59:24;;;;;;;3.35;2.00;;;;;;;;;;5014697;28;20101;-70
2023/07/09 14:01:52;;;;;;;2.78;2.10;;;;;;;;;;5014040;28;20498;-69
2023/07/09 14:04:19;;;;;;;2.80;1.90;;;;;;;;;;5014656;28;20029;-70
2023/07/09 14:06:46;;;;;;;4.78;2.10;;;;;;;;;;5014708;28;20097;-69
2023/07/09 14:09:12;;;;;;;5.15;2.50;;;;;;;;;;5014541;28;20402;-69
2023/07/09 14:11:51;;;;;;;2.40;1.88;;;;;;;;;;5013856;28;20017;-70
2023/07/09 14:14:32;;;;;;;3.00;2.03;;;;;;;;;;4997162;28;20487;-70
2023/07/09 14:16:57;;;;;;;3.60;2.22;;;;;;;;;;5013524;28;20096;-70
2023/07/09 14:19:23;;;;;;;3.45;2.20;;;;;;;;;;5014282;28;20049;-70
2023/07/09 14:21:49;;;;;;;3.85;2.25;;;;;;;;;;5012761;28;20033;-68
2023/07/09 14:24:28;;;;;;;2.45;1.90;;;;;;;;;;5013164;28;20076;-70
2023/07/09 14:26:56;;;;;;;3.75;2.17;;;;;;;;;;5014114;28;20022;-68
2023/07/09 14:29:22;;;;;;;4.35;2.45;;;;;;;;;;5013567;28;20517;-68
2023/07/09 14:31:48;;;;;;;3.80;2.30;;;;;;;;;;5014057;28;20120;-68
2023/07/09 14:34:22;;;;;;;2.90;2.10;;;;;;;;;;5014028;28;20075;-68
2023/07/09 14:36:48;;;;;;;3.17;2.20;;;;;;;;;;5014071;28;20091;-68
2023/07/09 14:39:14;;;;;;;2.97;2.10;;;;;;;;;;5013949;28;20030;-68
2023/07/09 14:41:40;;;;;;;3.67;2.30;;;;;;;;;;5012081;28;20041;-68
2023/07/09 14:44:20;;;;;;;2.97;2.03;;;;;;;;;;5012698;28;20026;-68
2023/07/09 14:46:46;;;;;;;4.65;2.30;;;;;;;;;;4996431;28;20522;-68
2023/07/09 14:49:11;;;;;;;2.75;2.03;;;;;;;;;;5014138;28;20071;-68